sensor_id;sensor_type;location;lat;lon;timestamp;temperature;humidity
19970;DHT22;10146;47.754;9.566;2023-04-23T00:01:25;12.50;99.90
19970;DHT22;10146;47.754;9.566;2023-04-23T00:03:57;12.60;99.90
19970;DHT22;10146;47.754;9.566;2023-04-23T00:06:22;12.40;99.90
19970;DHT22;10146;47.754;9.566;2023-04-23T00:08:52;12.40;99.90
19970;DHT22;10146;47.754;9.566;2023-04-23T00:11:18;12.50;99.90
19970;DHT22;10146;47.754;9.566;2023-04-23T00:13:44;12.40;99.90
19970;DHT22;10146;47.754;9.566;2023-04-23T00:16:12;12.40;99.90
19970;DHT22;10146;47.754;9.566;2023-04-23T00:18:38;12.40;99.90
19970;DHT22;10146;47.754;9.566;2023-04-23T00:21:03;12.40;99.90
19970;DHT22;10146;47.754;9.566;2023-04-23T00:23:29;12.40;99.90
19970;DHT22;10146;47.754;9.566;2023-04-23T00:25:55;12.50;99.90
19970;DHT22;10146;47.754;9.566;2023-04-23T00:28:20;12.30;99.90
19970;DHT22;10146;47.754;9.566;2023-04-23T00:30:46;12.40;99.90
19970;DHT22;10146;47.754;9.566;2023-04-23T00:33:11;12.40;99.90
19970;DHT22;10146;47.754;9.566;2023-04-23T00:35:37;12.20;99.90
19970;DHT22;10146;47.754;9.566;2023-04-23T00:38:03;12.20;99.90
19970;DHT22;10146;47.754;9.566;2023-04-23T00:40:29;12.20;99.90
19970;DHT22;10146;47.754;9.566;2023-04-23T00:42:55;12.10;99.90
19970;DHT22;10146;47.754;9.566;2023-04-23T00:45:22;12.20;99.90
19970;DHT22;10146;47.754;9.566;2023-04-23T00:47:48;12.30;99.90
19970;DHT22;10146;47.754;9.566;2023-04-23T00:50:14;12.30;99.90
19970;DHT22;10146;47.754;9.566;2023-04-23T00:52:40;12.40;99.90
19970;DHT22;10146;47.754;9.566;2023-04-23T00:55:06;12.20;99.90
19970;DHT22;10146;47.754;9.566;2023-04-23T00:57:36;12.10;99.90
19970;DHT22;10146;47.754;9.566;2023-04-23T01:00:06;12.00;99.90
19970;DHT22;10146;47.754;9.566;2023-04-23T01:02:33;12.00;99.90
19970;DHT22;10146;47.754;9.566;2023-04-23T01:05:02;11.90;99.90
19970;DHT22;10146;47.754;9.566;2023-04-23T01:07:28;11.90;99.90
19970;DHT22;10146;47.754;9.566;2023-04-23T01:09:54;11.90;99.90
19970;DHT22;10146;47.754;9.566;2023-04-23T01:12:20;12.00;99.90
19970;DHT22;10146;47.754;9.566;2023-04-23T01:14:45;12.00;99.90
19970;DHT22;10146;47.754;9.566;2023-04-23T01:17:12;11.90;99.90
19970;DHT22;10146;47.754;9.566;2023-04-23T01:19:38;11.90;99.90
19970;DHT22;10146;47.754;9.566;2023-04-23T01:22:15;11.90;99.90
19970;DHT22;10146;47.754;9.566;2023-04-23T01:24:41;12.00;99.90
19970;DHT22;10146;47.754;9.566;2023-04-23T01:27:07;12.00;99.90
19970;DHT22;10146;47.754;9.566;2023-04-23T01:29:34;12.00;99.90
19970;DHT22;10146;47.754;9.566;2023-04-23T01:32:00;11.90;99.90
19970;DHT22;10146;47.754;9.566;2023-04-23T01:34:26;11.80;99.90
19970;DHT22;10146;47.754;9.566;2023-04-23T01:36:53;11.70;99.90
19970;DHT22;10146;47.754;9.566;2023-04-23T01:39:19;11.70;99.90
19970;DHT22;10146;47.754;9.566;2023-04-23T01:41:45;11.90;99.90
19970;DHT22;10146;47.754;9.566;2023-04-23T01:44:11;11.80;99.90
19970;DHT22;10146;47.754;9.566;2023-04-23T01:46:37;11.80;99.90
19970;DHT22;10146;47.754;9.566;2023-04-23T01:49:03;11.90;99.90
19970;DHT22;10146;47.754;9.566;2023-04-23T01:51:29;11.80;99.90
19970;DHT22;10146;47.754;9.566;2023-04-23T01:53:55;11.80;99.90
19970;DHT22;10146;47.754;9.566;2023-04-23T01:56:24;11.70;99.90
19970;DHT22;10146;47.754;9.566;2023-04-23T01:58:51;11.60;99.90
19970;DHT22;10146;47.754;9.566;2023-04-23T02:01:17;11.60;99.90
19970;DHT22;10146;47.754;9.566;2023-04-23T02:03:43;11.60;99.90
19970;DHT22;10146;47.754;9.566;2023-04-23T02:06:09;11.60;99.90
19970;DHT22;10146;47.754;9.566;2023-04-23T02:08:35;11.70;99.90
19970;DHT22;10146;47.754;9.566;2023-04-23T02:11:01;11.70;99.90
19970;DHT22;10146;47.754;9.566;2023-04-23T02:13:27;11.70;99.90
19970;DHT22;10146;47.754;9.566;2023-04-23T02:15:52;11.60;99.90
19970;DHT22;10146;47.754;9.566;2023-04-23T02:18:18;11.70;99.90
19970;DHT22;10146;47.754;9.566;2023-04-23T02:20:43;11.70;99.90
19970;DHT22;10146;47.754;9.566;2023-04-23T02:23:09;11.80;99.90
19970;DHT22;10146;47.754;9.566;2023-04-23T02:25:36;11.80;99.90
19970;DHT22;10146;47.754;9.566;2023-04-23T02:28:05;11.80;99.90
19970;DHT22;10146;47.754;9.566;2023-04-23T02:30:35;11.80;99.90
19970;DHT22;10146;47.754;9.566;2023-04-23T02:33:01;11.70;99.90
19970;DHT22;10146;47.754;9.566;2023-04-23T02:35:26;11.80;99.90
19970;DHT22;10146;47.754;9.566;2023-04-23T02:37:53;11.70;99.90
19970;DHT22;10146;47.754;9.566;2023-04-23T02:40:19;11.70;99.90
19970;DHT22;10146;47.754;9.566;2023-04-23T02:42:44;11.80;99.90
19970;DHT22;10146;47.754;9.566;2023-04-23T02:45:11;11.70;99.90
19970;DHT22;10146;47.754;9.566;2023-04-23T02:47:37;11.70;99.90
19970;DHT22;10146;47.754;9.566;2023-04-23T02:50:04;11.70;99.90
19970;DHT22;10146;47.754;9.566;2023-04-23T02:52:31;11.70;99.90
19970;DHT22;10146;47.754;9.566;2023-04-23T02:54:56;11.80;99.90
19970;DHT22;10146;47.754;9.566;2023-04-23T02:57:22;11.70;99.90
19970;DHT22;10146;47.754;9.566;2023-04-23T02:59:48;11.70;99.90
19970;DHT22;10146;47.754;9.566;2023-04-23T03:02:14;11.70;99.90
19970;DHT22;10146;47.754;9.566;2023-04-23T03:04:40;11.70;99.90
19970;DHT22;10146;47.754;9.566;2023-04-23T03:07:06;11.60;99.90
19970;DHT22;10146;47.754;9.566;2023-04-23T03:09:32;11.60;99.90
19970;DHT22;10146;47.754;9.566;2023-04-23T03:11:57;11.60;99.90
19970;DHT22;10146;47.754;9.566;2023-04-23T03:14:23;11.50;99.90
19970;DHT22;10146;47.754;9.566;2023-04-23T03:16:49;11.50;99.90
19970;DHT22;10146;47.754;9.566;2023-04-23T03:19:14;11.40;99.90
19970;DHT22;10146;47.754;9.566;2023-04-23T03:21:40;11.50;99.90
19970;DHT22;10146;47.754;9.566;2023-04-23T03:24:06;11.50;99.90
19970;DHT22;10146;47.754;9.566;2023-04-23T03:26:32;11.50;99.90
19970;DHT22;10146;47.754;9.566;2023-04-23T03:28:59;11.50;99.90
19970;DHT22;10146;47.754;9.566;2023-04-23T03:31:24;11.50;99.90
19970;DHT22;10146;47.754;9.566;2023-04-23T03:33:50;11.50;99.90
19970;DHT22;10146;47.754;9.566;2023-04-23T03:36:15;11.50;99.90
19970;DHT22;10146;47.754;9.566;2023-04-23T03:38:41;11.50;99.90
19970;DHT22;10146;47.754;9.566;2023-04-23T03:41:06;11.50;99.90
19970;DHT22;10146;47.754;9.566;2023-04-23T03:43:32;11.50;99.90
19970;DHT22;10146;47.754;9.566;2023-04-23T03:45:58;11.40;99.90
19970;DHT22;10146;47.754;9.566;2023-04-23T03:48:23;11.40;99.90
19970;DHT22;10146;47.754;9.566;2023-04-23T03:50:49;11.30;99.90
19970;DHT22;10146;47.754;9.566;2023-04-23T03:53:15;11.30;99.90
19970;DHT22;10146;47.754;9.566;2023-04-23T03:55:42;11.30;99.90
19970;DHT22;10146;47.754;9.566;2023-04-23T03:58:08;11.40;99.90
19970;DHT22;10146;47.754;9.566;2023-04-23T04:00:33;11.40;99.90
19970;DHT22;10146;47.754;9.566;2023-04-23T04:02:59;11.40;99.90
19970;DHT22;10146;47.754;9.566;2023-04-23T04:05:26;11.40;99.90
19970;DHT22;10146;47.754;9.566;2023-04-23T04:07:52;11.40;99.90
19970;DHT22;10146;47.754;9.566;2023-04-23T04:10:19;11.50;99.90
19970;DHT22;10146;47.754;9.566;2023-04-23T04:12:44;11.50;99.90
19970;DHT22;10146;47.754;9.566;2023-04-23T04:15:12;11.40;99.90
19970;DHT22;10146;47.754;9.566;2023-04-23T04:17:38;11.30;99.90
19970;DHT22;10146;47.754;9.566;2023-04-23T04:20:04;11.40;99.90
19970;DHT22;10146;47.754;9.566;2023-04-23T04:22:32;11.40;99.90
19970;DHT22;10146;47.754;9.566;2023-04-23T04:24:58;11.40;99.90
19970;DHT22;10146;47.754;9.566;2023-04-23T04:27:24;11.40;99.90
19970;DHT22;10146;47.754;9.566;2023-04-23T04:29:49;11.30;99.90
19970;DHT22;10146;47.754;9.566;2023-04-23T04:32:16;11.30;99.90
19970;DHT22;10146;47.754;9.566;2023-04-23T04:34:42;11.30;99.90
19970;DHT22;10146;47.754;9.566;2023-04-23T04:37:07;11.20;99.90
19970;DHT22;10146;47.754;9.566;2023-04-23T04:39:35;11.20;99.90
19970;DHT22;10146;47.754;9.566;2023-04-23T04:42:00;11.10;99.90
19970;DHT22;10146;47.754;9.566;2023-04-23T04:44:27;11.10;99.90
19970;DHT22;10146;47.754;9.566;2023-04-23T04:46:53;11.20;99.90
19970;DHT22;10146;47.754;9.566;2023-04-23T04:49:19;11.20;99.90
19970;DHT22;10146;47.754;9.566;2023-04-23T04:51:46;11.20;99.90
19970;DHT22;10146;47.754;9.566;2023-04-23T04:54:12;11.10;99.90
19970;DHT22;10146;47.754;9.566;2023-04-23T04:56:38;11.20;99.90
19970;DHT22;10146;47.754;9.566;2023-04-23T04:59:03;11.10;99.90
19970;DHT22;10146;47.754;9.566;2023-04-23T05:01:29;11.20;99.90
19970;DHT22;10146;47.754;9.566;2023-04-23T05:03:55;11.10;99.90
19970;DHT22;10146;47.754;9.566;2023-04-23T05:06:21;11.10;99.90
19970;DHT22;10146;47.754;9.566;2023-04-23T05:08:47;11.00;99.90
19970;DHT22;10146;47.754;9.566;2023-04-23T05:11:14;11.00;99.90
19970;DHT22;10146;47.754;9.566;2023-04-23T05:13:40;11.10;99.90
19970;DHT22;10146;47.754;9.566;2023-04-23T05:16:06;11.10;99.90
19970;DHT22;10146;47.754;9.566;2023-04-23T05:18:32;11.10;99.90
19970;DHT22;10146;47.754;9.566;2023-04-23T05:20:57;11.20;99.90
19970;DHT22;10146;47.754;9.566;2023-04-23T05:23:23;11.30;99.90
19970;DHT22;10146;47.754;9.566;2023-04-23T05:25:48;11.20;99.90
19970;DHT22;10146;47.754;9.566;2023-04-23T05:28:17;11.20;99.90
19970;DHT22;10146;47.754;9.566;2023-04-23T05:30:43;11.20;99.90
19970;DHT22;10146;47.754;9.566;2023-04-23T05:33:08;11.20;99.90
19970;DHT22;10146;47.754;9.566;2023-04-23T05:35:34;11.20;99.90
19970;DHT22;10146;47.754;9.566;2023-04-23T05:38:00;11.20;99.90
19970;DHT22;10146;47.754;9.566;2023-04-23T05:40:27;11.20;99.90
19970;DHT22;10146;47.754;9.566;2023-04-23T05:42:52;11.20;99.90
19970;DHT22;10146;47.754;9.566;2023-04-23T05:45:19;11.20;99.90
19970;DHT22;10146;47.754;9.566;2023-04-23T05:47:45;11.20;99.90
19970;DHT22;10146;47.754;9.566;2023-04-23T05:50:11;11.30;99.90
19970;DHT22;10146;47.754;9.566;2023-04-23T05:52:36;11.30;99.90
19970;DHT22;10146;47.754;9.566;2023-04-23T05:55:02;11.30;99.90
19970;DHT22;10146;47.754;9.566;2023-04-23T05:57:28;11.30;99.90
19970;DHT22;10146;47.754;9.566;2023-04-23T05:59:53;11.30;99.90
19970;DHT22;10146;47.754;9.566;2023-04-23T06:02:19;11.40;99.90
19970;DHT22;10146;47.754;9.566;2023-04-23T06:04:45;11.30;99.90
19970;DHT22;10146;47.754;9.566;2023-04-23T06:07:10;11.40;99.90
19970;DHT22;10146;47.754;9.566;2023-04-23T06:09:37;11.40;99.90
19970;DHT22;10146;47.754;9.566;2023-04-23T06:12:02;11.50;99.90
19970;DHT22;10146;47.754;9.566;2023-04-23T06:14:28;11.60;99.90
19970;DHT22;10146;47.754;9.566;2023-04-23T06:16:54;11.50;99.90
19970;DHT22;10146;47.754;9.566;2023-04-23T06:19:19;11.60;99.90
19970;DHT22;10146;47.754;9.566;2023-04-23T06:21:45;11.70;99.90
19970;DHT22;10146;47.754;9.566;2023-04-23T06:24:11;11.70;99.90
19970;DHT22;10146;47.754;9.566;2023-04-23T06:26:36;11.70;99.90
19970;DHT22;10146;47.754;9.566;2023-04-23T06:29:02;11.80;99.90
19970;DHT22;10146;47.754;9.566;2023-04-23T06:31:27;11.90;99.90
19970;DHT22;10146;47.754;9.566;2023-04-23T06:33:53;12.00;99.90
19970;DHT22;10146;47.754;9.566;2023-04-23T06:36:19;12.00;99.90
19970;DHT22;10146;47.754;9.566;2023-04-23T06:38:44;11.90;99.90
19970;DHT22;10146;47.754;9.566;2023-04-23T06:41:10;12.00;99.90
19970;DHT22;10146;47.754;9.566;2023-04-23T06:43:37;12.00;99.90
19970;DHT22;10146;47.754;9.566;2023-04-23T06:46:03;11.90;99.90
19970;DHT22;10146;47.754;9.566;2023-04-23T06:48:28;12.10;99.90
19970;DHT22;10146;47.754;9.566;2023-04-23T06:50:56;12.20;99.90
19970;DHT22;10146;47.754;9.566;2023-04-23T06:53:22;12.20;99.90
19970;DHT22;10146;47.754;9.566;2023-04-23T06:55:48;12.20;99.90
19970;DHT22;10146;47.754;9.566;2023-04-23T06:58:14;12.20;99.90
19970;DHT22;10146;47.754;9.566;2023-04-23T07:00:41;12.30;99.90
19970;DHT22;10146;47.754;9.566;2023-04-23T07:03:07;12.30;99.90
19970;DHT22;10146;47.754;9.566;2023-04-23T07:05:32;12.40;99.90
19970;DHT22;10146;47.754;9.566;2023-04-23T07:07:58;12.30;99.90
19970;DHT22;10146;47.754;9.566;2023-04-23T07:10:24;12.40;99.90
19970;DHT22;10146;47.754;9.566;2023-04-23T07:12:49;12.50;99.90
19970;DHT22;10146;47.754;9.566;2023-04-23T07:15:15;12.60;99.90
19970;DHT22;10146;47.754;9.566;2023-04-23T07:17:40;12.60;99.90
19970;DHT22;10146;47.754;9.566;2023-04-23T07:20:07;12.70;99.90
19970;DHT22;10146;47.754;9.566;2023-04-23T07:22:33;12.80;99.90
19970;DHT22;10146;47.754;9.566;2023-04-23T07:25:00;12.70;99.90
19970;DHT22;10146;47.754;9.566;2023-04-23T07:27:25;12.80;99.90
19970;DHT22;10146;47.754;9.566;2023-04-23T07:29:51;12.80;99.90
19970;DHT22;10146;47.754;9.566;2023-04-23T07:32:17;12.70;99.90
19970;DHT22;10146;47.754;9.566;2023-04-23T07:34:42;12.80;99.90
19970;DHT22;10146;47.754;9.566;2023-04-23T07:37:08;12.90;99.90
19970;DHT22;10146;47.754;9.566;2023-04-23T07:39:33;13.00;99.90
19970;DHT22;10146;47.754;9.566;2023-04-23T07:41:59;13.00;99.90
19970;DHT22;10146;47.754;9.566;2023-04-23T07:44:26;13.10;99.90
19970;DHT22;10146;47.754;9.566;2023-04-23T07:46:52;13.20;99.90
19970;DHT22;10146;47.754;9.566;2023-04-23T07:49:18;13.10;99.90
19970;DHT22;10146;47.754;9.566;2023-04-23T07:51:43;13.20;99.90
19970;DHT22;10146;47.754;9.566;2023-04-23T07:54:09;13.20;99.90
19970;DHT22;10146;47.754;9.566;2023-04-23T07:56:36;13.30;99.90
19970;DHT22;10146;47.754;9.566;2023-04-23T07:59:01;13.50;99.90
19970;DHT22;10146;47.754;9.566;2023-04-23T08:01:27;13.60;99.90
19970;DHT22;10146;47.754;9.566;2023-04-23T08:03:53;13.80;99.90
19970;DHT22;10146;47.754;9.566;2023-04-23T08:06:21;13.60;99.90
19970;DHT22;10146;47.754;9.566;2023-04-23T08:08:48;13.80;99.90
19970;DHT22;10146;47.754;9.566;2023-04-23T08:11:14;13.70;99.90
19970;DHT22;10146;47.754;9.566;2023-04-23T08:13:39;13.70;99.90
19970;DHT22;10146;47.754;9.566;2023-04-23T08:16:05;13.90;99.90
19970;DHT22;10146;47.754;9.566;2023-04-23T08:18:31;14.20;99.90
19970;DHT22;10146;47.754;9.566;2023-04-23T08:20:57;14.20;99.90
19970;DHT22;10146;47.754;9.566;2023-04-23T08:23:23;14.30;99.90
19970;DHT22;10146;47.754;9.566;2023-04-23T08:25:49;14.10;99.90
19970;DHT22;10146;47.754;9.566;2023-04-23T08:28:15;14.30;99.90
19970;DHT22;10146;47.754;9.566;2023-04-23T08:30:40;14.40;99.90
19970;DHT22;10146;47.754;9.566;2023-04-23T08:33:06;14.40;99.90
19970;DHT22;10146;47.754;9.566;2023-04-23T08:35:32;14.50;99.90
19970;DHT22;10146;47.754;9.566;2023-04-23T08:37:57;14.50;99.90
19970;DHT22;10146;47.754;9.566;2023-04-23T08:40:24;14.90;99.90
19970;DHT22;10146;47.754;9.566;2023-04-23T08:43:02;15.00;99.90
19970;DHT22;10146;47.754;9.566;2023-04-23T08:45:29;15.00;99.90
19970;DHT22;10146;47.754;9.566;2023-04-23T08:47:58;15.00;99.90
19970;DHT22;10146;47.754;9.566;2023-04-23T08:50:24;14.90;99.90
19970;DHT22;10146;47.754;9.566;2023-04-23T08:52:52;14.90;99.90
19970;DHT22;10146;47.754;9.566;2023-04-23T08:55:20;15.00;99.90
19970;DHT22;10146;47.754;9.566;2023-04-23T08:57:46;15.00;99.90
19970;DHT22;10146;47.754;9.566;2023-04-23T09:00:13;14.90;99.90
19970;DHT22;10146;47.754;9.566;2023-04-23T09:02:41;14.90;99.90
19970;DHT22;10146;47.754;9.566;2023-04-23T09:05:07;15.10;99.90
19970;DHT22;10146;47.754;9.566;2023-04-23T09:07:34;15.20;99.90
19970;DHT22;10146;47.754;9.566;2023-04-23T09:10:00;15.30;99.90
19970;DHT22;10146;47.754;9.566;2023-04-23T09:12:26;15.40;99.90
19970;DHT22;10146;47.754;9.566;2023-04-23T09:14:52;15.40;99.90
19970;DHT22;10146;47.754;9.566;2023-04-23T09:17:18;15.40;99.90
19970;DHT22;10146;47.754;9.566;2023-04-23T09:19:46;15.40;99.90
19970;DHT22;10146;47.754;9.566;2023-04-23T09:22:13;15.60;99.90
19970;DHT22;10146;47.754;9.566;2023-04-23T09:24:42;15.70;99.90
19970;DHT22;10146;47.754;9.566;2023-04-23T09:27:08;15.70;99.90
19970;DHT22;10146;47.754;9.566;2023-04-23T09:29:34;15.70;99.90
19970;DHT22;10146;47.754;9.566;2023-04-23T09:32:09;15.80;99.90
19970;DHT22;10146;47.754;9.566;2023-04-23T09:34:35;15.60;99.90
19970;DHT22;10146;47.754;9.566;2023-04-23T09:37:05;15.80;99.90
19970;DHT22;10146;47.754;9.566;2023-04-23T09:39:33;15.60;99.90
19970;DHT22;10146;47.754;9.566;2023-04-23T09:42:03;15.70;99.90
19970;DHT22;10146;47.754;9.566;2023-04-23T09:44:31;15.50;99.90
19970;DHT22;10146;47.754;9.566;2023-04-23T09:47:05;15.90;99.90
19970;DHT22;10146;47.754;9.566;2023-04-23T09:49:44;16.10;99.90
19970;DHT22;10146;47.754;9.566;2023-04-23T09:52:10;16.40;99.90
19970;DHT22;10146;47.754;9.566;2023-04-23T09:54:36;16.20;99.90
19970;DHT22;10146;47.754;9.566;2023-04-23T09:57:01;15.90;99.90
19970;DHT22;10146;47.754;9.566;2023-04-23T09:59:34;15.90;99.90
19970;DHT22;10146;47.754;9.566;2023-04-23T10:02:05;16.00;99.90
19970;DHT22;10146;47.754;9.566;2023-04-23T10:04:31;16.00;99.90
19970;DHT22;10146;47.754;9.566;2023-04-23T10:07:01;16.30;99.90
19970;DHT22;10146;47.754;9.566;2023-04-23T10:09:29;16.30;99.90
19970;DHT22;10146;47.754;9.566;2023-04-23T10:11:59;16.20;99.90
19970;DHT22;10146;47.754;9.566;2023-04-23T10:14:27;16.60;99.90
19970;DHT22;10146;47.754;9.566;2023-04-23T10:16:58;17.00;99.90
19970;DHT22;10146;47.754;9.566;2023-04-23T10:19:25;16.80;99.90
19970;DHT22;10146;47.754;9.566;2023-04-23T10:21:56;16.60;99.90
19970;DHT22;10146;47.754;9.566;2023-04-23T10:24:26;16.70;99.90
19970;DHT22;10146;47.754;9.566;2023-04-23T10:26:56;16.60;99.90
19970;DHT22;10146;47.754;9.566;2023-04-23T10:29:28;16.70;99.90
19970;DHT22;10146;47.754;9.566;2023-04-23T10:32:00;16.60;99.90
19970;DHT22;10146;47.754;9.566;2023-04-23T10:34:27;16.50;99.90
19970;DHT22;10146;47.754;9.566;2023-04-23T10:36:55;16.70;99.90
19970;DHT22;10146;47.754;9.566;2023-04-23T10:39:23;16.70;99.90
19970;DHT22;10146;47.754;9.566;2023-04-23T10:41:50;16.80;99.90
19970;DHT22;10146;47.754;9.566;2023-04-23T10:44:18;16.80;99.90
19970;DHT22;10146;47.754;9.566;2023-04-23T10:46:58;17.00;99.90
19970;DHT22;10146;47.754;9.566;2023-04-23T10:49:30;16.90;99.90
19970;DHT22;10146;47.754;9.566;2023-04-23T10:52:12;16.90;99.90
19970;DHT22;10146;47.754;9.566;2023-04-23T10:54:46;17.10;99.90
19970;DHT22;10146;47.754;9.566;2023-04-23T10:57:12;17.10;99.90
19970;DHT22;10146;47.754;9.566;2023-04-23T10:59:39;17.10;99.90
19970;DHT22;10146;47.754;9.566;2023-04-23T11:02:10;17.50;99.90
19970;DHT22;10146;47.754;9.566;2023-04-23T11:04:42;17.60;99.90
19970;DHT22;10146;47.754;9.566;2023-04-23T11:07:11;17.60;99.90
19970;DHT22;10146;47.754;9.566;2023-04-23T11:09:40;17.50;99.90
19970;DHT22;10146;47.754;9.566;2023-04-23T11:12:08;17.70;99.90
19970;DHT22;10146;47.754;9.566;2023-04-23T11:14:47;17.90;99.90
19970;DHT22;10146;47.754;9.566;2023-04-23T11:17:15;17.90;99.90
19970;DHT22;10146;47.754;9.566;2023-04-23T11:20:06;18.20;99.90
19970;DHT22;10146;47.754;9.566;2023-04-23T11:22:33;17.90;99.90
19970;DHT22;10146;47.754;9.566;2023-04-23T11:25:01;17.60;99.90
19970;DHT22;10146;47.754;9.566;2023-04-23T11:27:29;17.50;99.90
19970;DHT22;10146;47.754;9.566;2023-04-23T11:29:56;17.20;99.90
19970;DHT22;10146;47.754;9.566;2023-04-23T11:32:21;17.30;99.90
19970;DHT22;10146;47.754;9.566;2023-04-23T11:34:48;17.60;99.90
19970;DHT22;10146;47.754;9.566;2023-04-23T11:37:16;17.50;99.90
19970;DHT22;10146;47.754;9.566;2023-04-23T11:39:44;17.90;99.90
19970;DHT22;10146;47.754;9.566;2023-04-23T11:42:10;18.20;99.90
19970;DHT22;10146;47.754;9.566;2023-04-23T11:44:38;18.00;99.90
19970;DHT22;10146;47.754;9.566;2023-04-23T11:47:07;18.00;99.90
19970;DHT22;10146;47.754;9.566;2023-04-23T11:49:32;18.20;99.90
19970;DHT22;10146;47.754;9.566;2023-04-23T11:51:59;18.10;99.90
19970;DHT22;10146;47.754;9.566;2023-04-23T11:54:26;18.30;99.90
19970;DHT22;10146;47.754;9.566;2023-04-23T11:56:53;18.30;99.90
19970;DHT22;10146;47.754;9.566;2023-04-23T11:59:19;18.40;99.90
19970;DHT22;10146;47.754;9.566;2023-04-23T12:01:47;18.40;99.90
19970;DHT22;10146;47.754;9.566;2023-04-23T12:04:20;18.70;99.90
19970;DHT22;10146;47.754;9.566;2023-04-23T12:06:47;19.20;99.90
19970;DHT22;10146;47.754;9.566;2023-04-23T12:09:14;19.20;99.90
19970;DHT22;10146;47.754;9.566;2023-04-23T12:11:42;19.40;99.90
19970;DHT22;10146;47.754;9.566;2023-04-23T12:14:09;19.60;99.90
19970;DHT22;10146;47.754;9.566;2023-04-23T12:16:37;19.70;99.90
19970;DHT22;10146;47.754;9.566;2023-04-23T12:19:06;19.80;99.90
19970;DHT22;10146;47.754;9.566;2023-04-23T12:21:31;19.40;99.90
19970;DHT22;10146;47.754;9.566;2023-04-23T12:23:58;19.40;99.90
19970;DHT22;10146;47.754;9.566;2023-04-23T12:26:24;19.30;99.90
19970;DHT22;10146;47.754;9.566;2023-04-23T12:28:51;19.20;99.90
19970;DHT22;10146;47.754;9.566;2023-04-23T12:31:21;19.40;99.90
19970;DHT22;10146;47.754;9.566;2023-04-23T12:33:55;19.30;99.90
19970;DHT22;10146;47.754;9.566;2023-04-23T12:36:26;19.70;99.90
19970;DHT22;10146;47.754;9.566;2023-04-23T12:38:52;19.30;99.90
19970;DHT22;10146;47.754;9.566;2023-04-23T12:41:18;19.20;99.90
19970;DHT22;10146;47.754;9.566;2023-04-23T12:43:44;19.20;99.90
19970;DHT22;10146;47.754;9.566;2023-04-23T12:46:13;19.70;99.90
19970;DHT22;10146;47.754;9.566;2023-04-23T12:48:38;19.80;99.90
19970;DHT22;10146;47.754;9.566;2023-04-23T12:51:04;20.00;99.90
19970;DHT22;10146;47.754;9.566;2023-04-23T12:53:31;20.40;99.90
19970;DHT22;10146;47.754;9.566;2023-04-23T12:55:56;20.00;99.90
19970;DHT22;10146;47.754;9.566;2023-04-23T12:58:22;20.30;99.90
19970;DHT22;10146;47.754;9.566;2023-04-23T13:00:47;20.60;99.40
19970;DHT22;10146;47.754;9.566;2023-04-23T13:03:13;20.70;99.90
19970;DHT22;10146;47.754;9.566;2023-04-23T13:05:40;20.90;98.90
19970;DHT22;10146;47.754;9.566;2023-04-23T13:08:06;20.60;98.30
19970;DHT22;10146;47.754;9.566;2023-04-23T13:10:31;21.00;98.90
19970;DHT22;10146;47.754;9.566;2023-04-23T13:12:57;21.40;97.90
19970;DHT22;10146;47.754;9.566;2023-04-23T13:15:23;21.40;96.10
19970;DHT22;10146;47.754;9.566;2023-04-23T13:17:48;21.50;93.10
19970;DHT22;10146;47.754;9.566;2023-04-23T13:20:14;21.20;94.50
19970;DHT22;10146;47.754;9.566;2023-04-23T13:22:39;21.50;91.10
19970;DHT22;10146;47.754;9.566;2023-04-23T13:25:05;21.10;92.70
19970;DHT22;10146;47.754;9.566;2023-04-23T13:27:31;21.10;91.10
19970;DHT22;10146;47.754;9.566;2023-04-23T13:29:57;21.20;92.00
19970;DHT22;10146;47.754;9.566;2023-04-23T13:32:23;21.60;90.30
19970;DHT22;10146;47.754;9.566;2023-04-23T13:34:51;21.90;87.10
19970;DHT22;10146;47.754;9.566;2023-04-23T13:37:16;22.50;86.00
19970;DHT22;10146;47.754;9.566;2023-04-23T13:39:42;22.70;86.90
19970;DHT22;10146;47.754;9.566;2023-04-23T13:42:08;22.90;88.20
19970;DHT22;10146;47.754;9.566;2023-04-23T13:44:34;22.60;84.30
19970;DHT22;10146;47.754;9.566;2023-04-23T13:46:59;22.10;85.60
19970;DHT22;10146;47.754;9.566;2023-04-23T13:49:25;22.20;87.90
19970;DHT22;10146;47.754;9.566;2023-04-23T13:51:53;22.10;85.30
19970;DHT22;10146;47.754;9.566;2023-04-23T13:54:23;22.20;84.20
19970;DHT22;10146;47.754;9.566;2023-04-23T13:56:49;22.10;86.10
19970;DHT22;10146;47.754;9.566;2023-04-23T13:59:14;22.20;84.40
19970;DHT22;10146;47.754;9.566;2023-04-23T14:01:40;22.30;83.20
19970;DHT22;10146;47.754;9.566;2023-04-23T14:04:06;22.00;85.00
19970;DHT22;10146;47.754;9.566;2023-04-23T14:06:31;21.60;86.80
19970;DHT22;10146;47.754;9.566;2023-04-23T14:08:57;21.30;88.10
19970;DHT22;10146;47.754;9.566;2023-04-23T14:11:23;21.90;89.40
19970;DHT22;10146;47.754;9.566;2023-04-23T14:13:48;21.90;85.90
19970;DHT22;10146;47.754;9.566;2023-04-23T14:16:14;21.60;87.50
19970;DHT22;10146;47.754;9.566;2023-04-23T14:18:40;21.60;87.40
19970;DHT22;10146;47.754;9.566;2023-04-23T14:21:06;21.60;86.80
19970;DHT22;10146;47.754;9.566;2023-04-23T14:29:49;21.90;83.60
19970;DHT22;10146;47.754;9.566;2023-04-23T14:31:46;21.80;86.20
19970;DHT22;10146;47.754;9.566;2023-04-23T14:34:12;22.00;85.60
19970;DHT22;10146;47.754;9.566;2023-04-23T14:36:38;21.90;86.00
19970;DHT22;10146;47.754;9.566;2023-04-23T14:39:03;21.70;88.70
19970;DHT22;10146;47.754;9.566;2023-04-23T14:41:33;21.90;87.00
19970;DHT22;10146;47.754;9.566;2023-04-23T14:43:59;21.20;86.40
19970;DHT22;10146;47.754;9.566;2023-04-23T14:46:25;20.90;89.10
19970;DHT22;10146;47.754;9.566;2023-04-23T14:48:51;20.60;91.00
19970;DHT22;10146;47.754;9.566;2023-04-23T14:51:17;20.40;91.70
19970;DHT22;10146;47.754;9.566;2023-04-23T14:53:42;20.30;93.50
19970;DHT22;10146;47.754;9.566;2023-04-23T14:56:08;20.00;93.70
19970;DHT22;10146;47.754;9.566;2023-04-23T14:58:33;19.90;95.00
19970;DHT22;10146;47.754;9.566;2023-04-23T15:00:59;19.60;95.00
19970;DHT22;10146;47.754;9.566;2023-04-23T15:03:25;19.30;96.60
19970;DHT22;10146;47.754;9.566;2023-04-23T15:05:52;19.10;99.40
19970;DHT22;10146;47.754;9.566;2023-04-23T15:08:18;19.10;99.90
19970;DHT22;10146;47.754;9.566;2023-04-23T15:10:43;18.90;99.90
19970;DHT22;10146;47.754;9.566;2023-04-23T15:15:54;18.60;99.90
19970;DHT22;10146;47.754;9.566;2023-04-23T15:18:21;18.50;99.90
19970;DHT22;10146;47.754;9.566;2023-04-23T15:20:46;18.10;99.90
19970;DHT22;10146;47.754;9.566;2023-04-23T15:23:12;17.10;99.90
19970;DHT22;10146;47.754;9.566;2023-04-23T15:25:38;16.30;99.90
19970;DHT22;10146;47.754;9.566;2023-04-23T15:28:04;16.10;99.90
19970;DHT22;10146;47.754;9.566;2023-04-23T15:30:31;15.60;99.90
19970;DHT22;10146;47.754;9.566;2023-04-23T15:32:57;15.20;99.90
19970;DHT22;10146;47.754;9.566;2023-04-23T15:35:23;15.20;99.90